地図

経路データ

SID SEASON NUMBER BASIN SUBBASIN NAME ISO_TIME NATURE LAT LON WMO_WIND WMO_PRES WMO_AGENCY TRACK_TYPE DIST2LAND LANDFALL IFLAG USA_AGENCY USA_ATCF_ID USA_LAT USA_LON USA_RECORD USA_STATUS USA_WIND USA_PRES USA_SSHS USA_R34_NE USA_R34_SE USA_R34_SW USA_R34_NW USA_R50_NE USA_R50_SE USA_R50_SW USA_R50_NW USA_R64_NE USA_R64_SE USA_R64_SW USA_R64_NW USA_POCI USA_ROCI USA_RMW USA_EYE TOKYO_LAT TOKYO_LON TOKYO_GRADE TOKYO_WIND TOKYO_PRES TOKYO_R50_DIR TOKYO_R50_LONG TOKYO_R50_SHORT TOKYO_R30_DIR TOKYO_R30_LONG TOKYO_R30_SHORT TOKYO_LAND CMA_LAT CMA_LON CMA_CAT CMA_WIND CMA_PRES HKO_LAT HKO_LON HKO_CAT HKO_WIND HKO_PRES NEWDELHI_LAT NEWDELHI_LON NEWDELHI_GRADE NEWDELHI_WIND NEWDELHI_PRES NEWDELHI_CI NEWDELHI_DP NEWDELHI_POCI REUNION_LAT REUNION_LON REUNION_TYPE REUNION_WIND REUNION_PRES REUNION_TNUM REUNION_CI REUNION_RMW REUNION_R34_NE REUNION_R34_SE REUNION_R34_SW REUNION_R34_NW REUNION_R50_NE REUNION_R50_SE REUNION_R50_SW REUNION_R50_NW REUNION_R64_NE REUNION_R64_SE REUNION_R64_SW REUNION_R64_NW BOM_LAT BOM_LON BOM_TYPE BOM_WIND BOM_PRES BOM_TNUM BOM_CI BOM_RMW BOM_R34_NE BOM_R34_SE BOM_R34_SW BOM_R34_NW BOM_R50_NE BOM_R50_SE BOM_R50_SW BOM_R50_NW BOM_R64_NE BOM_R64_SE BOM_R64_SW BOM_R64_NW BOM_ROCI BOM_POCI BOM_EYE BOM_POS_METHOD BOM_PRES_METHOD NADI_LAT NADI_LON NADI_CAT NADI_WIND NADI_PRES WELLINGTON_LAT WELLINGTON_LON WELLINGTON_WIND WELLINGTON_PRES DS824_LAT DS824_LON DS824_STAGE DS824_WIND DS824_PRES TD9636_LAT TD9636_LON TD9636_STAGE TD9636_WIND TD9636_PRES TD9635_LAT TD9635_LON TD9635_WIND TD9635_PRES TD9635_ROCI NEUMANN_LAT NEUMANN_LON NEUMANN_CLASS NEUMANN_WIND NEUMANN_PRES MLC_LAT MLC_LON MLC_CLASS MLC_WIND MLC_PRES USA_GUST BOM_GUST BOM_GUST_PER REUNION_GUST REUNION_GUST_PER USA_SEAHGT USA_SEARAD_NE USA_SEARAD_SE USA_SEARAD_SW USA_SEARAD_NW STORM_SPEED STORM_DIR
1974220N24142 1974 71 WP MM NOT_NAMED 1974-08-07 18:00:00 TS 23.8000 141.900 main 1225 1190 __O___________ -1 23.8000 141.900 0 1004 13 33
1974220N24142 1974 71 WP MM NOT_NAMED 1974-08-07 21:00:00 TS 24.3252 142.267 main 1195 1153 __P___________ -1 24.3252 142.267 0 1004 12 33
1974220N24142 1974 71 WP MM NOT_NAMED 1974-08-08 00:00:00 TS 24.8000 142.600 main 1153 1117 __O___________ -1 24.8000 142.600 0 1004 10 32
1974220N24142 1974 71 WP MM NOT_NAMED 1974-08-08 03:00:00 TS 25.1999 142.873 main 1120 1082 __P___________ -1 25.1999 142.873 0 1003 9 30
1974220N24142 1974 71 WP MM NOT_NAMED 1974-08-08 06:00:00 TS 25.6000 143.100 main 1082 1044 __O___________ -1 25.6000 143.100 0 1002 10 26
1974220N24142 1974 71 WP MM NOT_NAMED 1974-08-08 09:00:00 TS 26.0775 143.337 main 1034 987 __P___________ -1 26.0775 143.337 0 1002 11 20
1974220N24142 1974 71 WP MM NOT_NAMED 1974-08-08 12:00:00 TS 26.6000 143.500 main 987 938 __O___________ -1 26.6000 143.500 0 1002 11 10
1974220N24142 1974 71 WP MM NOT_NAMED 1974-08-08 15:00:00 TS 27.1574 143.553 main 928 872 __P___________ -1 27.1574 143.553 0 1002 11 0
1974220N24142 1974 71 WP MM NOT_NAMED 1974-08-08 18:00:00 TS 27.7000 143.500 main 872 817 __O___________ -1 27.7000 143.500 0 19 1002 10 353
1974220N24142 1974 71 WP MM NOT_NAMED 1974-08-08 21:00:00 TS 28.1798 143.417 main 817 768 __P___________ -1 28.1798 143.417 0 21 1002 9 344
1974220N24142 1974 71 WP MM NOT_NAMED 1974-08-09 00:00:00 TS 28.6000 143.200 main 768 712 __O___________ -1 28.6000 143.200 1 23 1002 10 326
1974220N24142 1974 71 WP MM NOT_NAMED 1974-08-09 03:00:00 TS 28.9725 142.810 main 712 664 __P___________ -1 28.9725 142.810 1 23 1002 11 312
1974220N24142 1974 71 WP MM NOT_NAMED 1974-08-09 06:00:00 TS 29.3000 142.300 main 664 617 __O___________ -1 29.3000 142.300 1 23 1002 11 306
1974220N24142 1974 71 WP MM NOT_NAMED 1974-08-09 09:00:00 TS 29.6300 141.758 main 617 570 __P___________ -1 29.6300 141.758 1 21 1003 11 302
1974220N24142 1974 71 WP MM NOT_NAMED 1974-08-09 12:00:00 TS 29.9000 141.200 main 570 532 __O___________ -1 29.9000 141.200 0 19 1004 10 296
1974220N24142 1974 71 WP MM NOT_NAMED 1974-08-09 15:00:00 TS 30.0719 140.714 main 532 507 __P___________ -1 30.0719 140.714 0 19 1004 9 289
1974220N24142 1974 71 WP MM NOT_NAMED 1974-08-09 18:00:00 TS 30.2000 140.200 main 507 486 __O___________ -1 30.2000 140.200 0 19 1004 10 286
1974220N24142 1974 71 WP MM NOT_NAMED 1974-08-09 21:00:00 TS 30.3412 139.639 main 485 435 __P___________ -1 30.3412 139.639 0 21 1003 12 285
1974220N24142 1974 71 WP MM NOT_NAMED 1974-08-10 00:00:00 TS 30.5000 138.900 main 435 360 __O___________ -1 30.5000 138.900 1 23 1002 16 283
1974220N24142 1974 71 WP MM NOT_NAMED 1974-08-10 03:00:00 TS 30.6861 137.845 main 355 294 __P___________ -1 30.6861 137.845 1 23 1002 19 282
1974220N24142 1974 71 WP MM NOT_NAMED 1974-08-10 06:00:00 TS 30.9000 136.700 main 291 256 __O___________ -1 30.9000 136.700 1 23 1002 19 284
1974220N24142 1974 71 WP MM NOT_NAMED 1974-08-10 09:00:00 TS 31.1426 135.698 main 256 208 __P___________ -1 31.1426 135.698 1 23 1002 17 287
1974220N24142 1974 71 WP MM NOT_NAMED 1974-08-10 12:00:00 TS 31.4000 134.800 main 208 __O___________ -1 31.4000 134.800 1 23 1002 16 289

デジタル台風データ・検索

IBTrACS Databaseについて

本データベースは、米国NOAAが公開する1842年以降の世界の熱帯低気圧のベストトラックデータアーカイブInternational Best Track Archive for Climate Stewardship (IBTrACS)を、ウェブで閲覧しやすい形式に変換したものです。

最終更新日:2021-10-21